createdAt,value
2024-05-09T00:00:06.774Z,26.31
2024-05-09T00:01:05.713Z,26.33
2024-05-09T00:02:05.648Z,26.33
2024-05-09T00:03:05.665Z,26.28
2024-05-09T00:04:05.743Z,26.30
2024-05-09T00:05:05.757Z,26.30
2024-05-09T00:06:05.880Z,26.30
2024-05-09T00:07:05.627Z,26.30
2024-05-09T00:08:05.721Z,26.28
2024-05-09T00:09:05.635Z,26.30
2024-05-09T00:10:09.222Z,26.27
2024-05-09T00:11:06.815Z,26.28
2024-05-09T00:12:05.749Z,26.30
2024-05-09T00:13:05.752Z,26.28
2024-05-09T00:14:05.710Z,26.28
2024-05-09T00:15:05.688Z,26.28
2024-05-09T00:16:05.628Z,26.28
2024-05-09T00:17:05.849Z,26.31
2024-05-09T00:18:06.374Z,26.30
2024-05-09T00:19:05.730Z,26.27
2024-05-09T00:20:14.254Z,26.27
2024-05-09T00:21:06.747Z,26.30
2024-05-09T00:22:05.665Z,26.26
2024-05-09T00:23:05.713Z,26.28
2024-05-09T00:24:05.663Z,26.28
2024-05-09T00:25:05.671Z,26.28
2024-05-09T00:26:05.736Z,26.27
2024-05-09T00:27:05.769Z,26.27
2024-05-09T00:28:05.679Z,26.26
2024-05-09T00:29:05.660Z,26.27
2024-05-09T00:30:07.293Z,26.27
2024-05-09T00:31:05.681Z,26.27
2024-05-09T00:32:05.694Z,26.27
2024-05-09T00:33:06.944Z,26.27
2024-05-09T00:34:06.077Z,26.27
2024-05-09T00:35:05.948Z,26.26
2024-05-09T00:36:05.984Z,26.26
2024-05-09T00:37:06.079Z,26.27
2024-05-09T00:38:06.419Z,26.26
2024-05-09T00:39:06.168Z,26.27
2024-05-09T00:40:07.610Z,26.26
2024-05-09T00:41:07.269Z,26.26
2024-05-09T00:42:06.208Z,26.24
2024-05-09T00:43:06.275Z,26.26
2024-05-09T00:44:06.211Z,26.27
2024-05-09T00:45:06.202Z,26.26
2024-05-09T00:46:06.196Z,26.26
2024-05-09T00:47:06.360Z,26.27
2024-05-09T00:48:06.796Z,26.24
2024-05-09T00:49:06.275Z,26.26
2024-05-09T00:50:10.112Z,26.27
2024-05-09T00:51:07.290Z,26.26
2024-05-09T00:52:06.248Z,26.26
2024-05-09T00:53:06.660Z,26.26
2024-05-09T00:54:06.208Z,26.27
2024-05-09T00:55:06.227Z,26.27
2024-05-09T00:56:06.232Z,26.26
2024-05-09T00:57:06.272Z,26.23
2024-05-09T00:58:06.198Z,26.24
2024-05-09T00:59:06.238Z,26.21
2024-05-09T01:00:12.202Z,26.24
2024-05-09T01:01:07.292Z,26.24
2024-05-09T01:02:06.302Z,26.23
2024-05-09T01:03:06.437Z,26.21
2024-05-09T01:04:06.435Z,26.26
2024-05-09T01:05:06.342Z,26.23
2024-05-09T01:06:06.244Z,26.23
2024-05-09T01:07:06.255Z,26.24
2024-05-09T01:08:06.287Z,26.24
2024-05-09T01:09:06.253Z,26.24
2024-05-09T01:10:11.707Z,26.21
2024-05-09T01:11:07.350Z,26.23
2024-05-09T01:12:06.313Z,26.21
2024-05-09T01:13:06.726Z,26.23
2024-05-09T01:14:06.264Z,26.21
2024-05-09T01:15:06.244Z,26.24
2024-05-09T01:16:06.294Z,26.23
2024-05-09T01:17:06.355Z,26.20
2024-05-09T01:18:06.475Z,26.21
2024-05-09T01:19:06.380Z,26.23
2024-05-09T01:20:10.453Z,26.21
2024-05-09T01:21:06.275Z,26.23
2024-05-09T01:22:06.269Z,26.21
2024-05-09T01:23:06.324Z,26.21
2024-05-09T01:24:06.248Z,26.20
2024-05-09T01:25:06.279Z,26.21
2024-05-09T01:26:06.320Z,26.20
2024-05-09T01:27:06.301Z,26.20
2024-05-09T01:28:06.307Z,26.17
2024-05-09T01:29:06.324Z,26.21
2024-05-09T01:30:09.539Z,26.20
2024-05-09T01:31:07.296Z,26.19
2024-05-09T01:32:06.355Z,26.20
2024-05-09T01:33:08.213Z,26.21
2024-05-09T01:34:06.318Z,26.20
2024-05-09T01:35:06.279Z,26.20
2024-05-09T01:36:06.283Z,26.20
2024-05-09T01:37:06.321Z,26.21
2024-05-09T01:38:06.459Z,26.20
2024-05-09T01:39:06.286Z,26.19
2024-05-09T01:40:09.703Z,26.17
2024-05-09T01:41:07.365Z,26.19
2024-05-09T01:42:06.272Z,26.17
2024-05-09T01:43:06.376Z,26.20
2024-05-09T01:44:06.304Z,26.19
2024-05-09T01:45:06.295Z,26.20
2024-05-09T01:46:06.290Z,26.21
2024-05-09T01:47:06.452Z,26.19
2024-05-09T01:48:06.704Z,26.19
2024-05-09T01:49:06.492Z,26.17
2024-05-09T01:50:09.070Z,26.17
2024-05-09T01:51:06.336Z,26.20
2024-05-09T01:52:06.311Z,26.19
2024-05-09T01:53:06.360Z,26.17
2024-05-09T01:54:06.310Z,26.17
2024-05-09T01:55:06.879Z,26.17
2024-05-09T01:56:06.348Z,26.17
2024-05-09T01:57:06.318Z,26.19
2024-05-09T01:58:06.355Z,26.19
2024-05-09T01:59:06.396Z,26.17
2024-05-09T02:00:07.914Z,26.14
2024-05-09T02:01:06.336Z,26.17
2024-05-09T02:02:06.414Z,26.16
2024-05-09T02:03:06.469Z,26.17
2024-05-09T02:04:06.859Z,26.17
2024-05-09T02:05:06.482Z,26.17
2024-05-09T02:06:06.552Z,26.19
2024-05-09T02:07:06.387Z,26.19
2024-05-09T02:08:06.484Z,26.14
2024-05-09T02:09:06.443Z,26.19
2024-05-09T02:10:13.672Z,26.14
2024-05-09T02:11:07.516Z,26.17
2024-05-09T02:12:06.714Z,26.19
2024-05-09T02:13:06.483Z,26.14
2024-05-09T02:14:06.490Z,26.14
2024-05-09T02:15:06.489Z,26.17
2024-05-09T02:16:06.500Z,26.14
2024-05-09T02:17:06.572Z,26.16
2024-05-09T02:18:06.689Z,26.16
2024-05-09T02:19:06.663Z,26.16
2024-05-09T02:20:06.646Z,26.16
2024-05-09T02:21:06.749Z,26.16
2024-05-09T02:22:06.637Z,26.16
2024-05-09T02:23:07.228Z,26.12
2024-05-09T02:24:06.757Z,26.16
2024-05-09T02:25:06.787Z,26.14
2024-05-09T02:26:06.951Z,26.16
2024-05-09T02:27:06.928Z,26.16
2024-05-09T02:28:06.987Z,26.13
2024-05-09T02:29:07.079Z,26.16
2024-05-09T02:30:18.348Z,26.16
2024-05-09T02:31:08.096Z,26.16
2024-05-09T02:32:07.156Z,26.14
2024-05-09T02:33:07.645Z,26.12
2024-05-09T02:34:07.238Z,26.14
2024-05-09T02:35:07.153Z,26.16
2024-05-09T02:36:07.101Z,26.13
2024-05-09T02:37:07.107Z,26.13
2024-05-09T02:38:07.234Z,26.16
2024-05-09T02:39:07.119Z,26.14
2024-05-09T02:40:11.530Z,26.14
2024-05-09T02:41:08.201Z,26.14
2024-05-09T02:42:07.156Z,26.14
2024-05-09T02:43:07.752Z,26.13
2024-05-09T02:44:07.210Z,26.13
2024-05-09T02:45:07.157Z,26.14
2024-05-09T02:46:07.180Z,26.14
2024-05-09T02:47:07.442Z,26.12
2024-05-09T02:48:07.586Z,26.12
2024-05-09T02:49:07.469Z,26.13
2024-05-09T02:50:08.262Z,26.16
2024-05-09T02:51:07.441Z,26.13
2024-05-09T02:52:07.309Z,26.13
2024-05-09T02:53:07.649Z,26.13
2024-05-09T02:54:07.450Z,26.12
2024-05-09T02:55:07.528Z,26.12
2024-05-09T02:56:07.614Z,26.12
2024-05-09T02:57:07.643Z,26.13
2024-05-09T02:58:07.706Z,26.12
2024-05-09T02:59:07.759Z,26.14
2024-05-09T03:00:12.251Z,26.13
2024-05-09T03:01:08.935Z,26.12
2024-05-09T03:02:07.898Z,26.08
2024-05-09T03:03:08.765Z,26.10
2024-05-09T03:04:08.018Z,26.12
2024-05-09T03:05:07.854Z,26.12
2024-05-09T03:06:07.813Z,26.12
2024-05-09T03:07:07.827Z,26.12
2024-05-09T03:08:08.011Z,26.10
2024-05-09T03:09:07.847Z,26.10
2024-05-09T03:10:14.924Z,26.08
2024-05-09T03:11:09.012Z,26.10
2024-05-09T03:12:08.022Z,26.12
2024-05-09T03:13:08.047Z,26.10
2024-05-09T03:14:07.953Z,26.12
2024-05-09T03:15:07.926Z,26.10
2024-05-09T03:16:07.920Z,26.12
2024-05-09T03:17:07.943Z,26.12
2024-05-09T03:18:08.111Z,26.12
2024-05-09T03:19:07.948Z,26.10
2024-05-09T03:20:17.015Z,26.10
2024-05-09T03:21:09.072Z,26.10
2024-05-09T03:22:07.968Z,26.12
2024-05-09T03:23:09.225Z,26.10
2024-05-09T03:24:07.997Z,26.08
2024-05-09T03:25:07.999Z,26.10
2024-05-09T03:26:07.980Z,26.10
2024-05-09T03:27:07.966Z,26.10
2024-05-09T03:28:08.038Z,26.08
2024-05-09T03:29:08.120Z,26.10
2024-05-09T03:30:09.939Z,26.10
2024-05-09T03:31:08.181Z,26.07
2024-05-09T03:32:08.428Z,26.10
2024-05-09T03:33:08.491Z,26.08
2024-05-09T03:34:08.432Z,26.10
2024-05-09T03:35:08.462Z,26.08
2024-05-09T03:36:11.069Z,26.10
2024-05-09T03:37:08.487Z,26.10
2024-05-09T03:38:08.553Z,26.10
2024-05-09T03:39:08.495Z,26.08
2024-05-09T03:40:14.462Z,26.07
2024-05-09T03:41:09.575Z,26.07
2024-05-09T03:42:08.509Z,26.07
2024-05-09T03:43:08.527Z,26.10
2024-05-09T03:44:08.594Z,26.08
2024-05-09T03:45:08.545Z,26.07
2024-05-09T03:46:08.547Z,26.07
2024-05-09T03:47:08.533Z,26.07
2024-05-09T03:48:08.902Z,26.08
2024-05-09T03:49:08.638Z,26.07
2024-05-09T03:50:15.173Z,26.08
2024-05-09T03:51:09.834Z,26.07
2024-05-09T03:52:08.636Z,26.08
2024-05-09T03:53:08.675Z,26.07
2024-05-09T03:54:08.645Z,26.08
2024-05-09T03:55:08.643Z,26.07
2024-05-09T03:56:08.692Z,26.07
2024-05-09T03:57:08.663Z,26.08
2024-05-09T03:58:08.712Z,26.06
2024-05-09T03:59:08.716Z,26.08
2024-05-09T04:00:17.735Z,26.07
2024-05-09T04:01:09.808Z,26.07
2024-05-09T04:02:08.887Z,26.08
2024-05-09T04:03:11.289Z,26.06
2024-05-09T04:04:08.924Z,26.06
2024-05-09T04:05:08.819Z,26.04
2024-05-09T04:06:08.798Z,26.04
2024-05-09T04:07:08.793Z,26.01
2024-05-09T04:08:08.957Z,26.03
2024-05-09T04:09:08.747Z,26.03
2024-05-09T04:10:11.301Z,26.01
2024-05-09T04:11:09.919Z,26.00
2024-05-09T04:12:08.814Z,26.01
2024-05-09T04:13:08.782Z,26.01
2024-05-09T04:14:08.842Z,26.00
2024-05-09T04:15:12.150Z,26.00
2024-05-09T04:16:08.804Z,26.00
2024-05-09T04:17:08.939Z,25.99
2024-05-09T04:18:08.961Z,25.97
2024-05-09T04:19:08.940Z,25.97
2024-05-09T04:20:12.421Z,25.93
2024-05-09T04:21:09.925Z,25.93
2024-05-09T04:22:08.791Z,25.94
2024-05-09T04:23:09.541Z,25.96
2024-05-09T04:24:16.758Z,25.89
2024-05-09T04:25:16.800Z,25.89
2024-05-09T04:26:16.847Z,25.90
2024-05-09T04:27:16.866Z,25.89
2024-05-09T04:28:16.766Z,25.90
2024-05-09T04:29:16.855Z,25.89
2024-05-09T04:30:25.518Z,25.87
2024-05-09T04:31:28.791Z,25.86
2024-05-09T04:32:28.888Z,25.86
2024-05-09T04:33:28.935Z,25.87
2024-05-09T04:34:28.872Z,25.87
2024-05-09T04:35:28.837Z,25.86
2024-05-09T04:36:28.811Z,25.90
2024-05-09T04:37:28.794Z,25.90
2024-05-09T04:38:28.821Z,25.90
2024-05-09T04:39:28.777Z,25.89
2024-05-09T04:40:33.939Z,25.92
2024-05-09T04:41:29.932Z,25.90
2024-05-09T04:42:28.786Z,25.89
2024-05-09T04:43:28.799Z,25.93
2024-05-09T04:44:28.937Z,25.93
2024-05-09T04:45:28.826Z,25.94
2024-05-09T04:46:28.799Z,25.94
2024-05-09T04:47:28.959Z,25.96
2024-05-09T04:48:29.000Z,25.94
2024-05-09T04:49:28.910Z,25.96
2024-05-09T04:50:35.950Z,25.97
2024-05-09T04:51:29.820Z,25.99
2024-05-09T04:52:28.802Z,25.99
2024-05-09T04:53:28.857Z,25.97
2024-05-09T04:54:35.829Z,25.99
2024-05-09T04:55:29.794Z,26.01
2024-05-09T04:56:28.901Z,26.01
2024-05-09T04:57:28.835Z,26.00
2024-05-09T04:58:28.865Z,26.00
2024-05-09T04:59:28.856Z,26.00
2024-05-09T05:00:35.427Z,26.00
2024-05-09T05:01:29.989Z,26.01
2024-05-09T05:02:28.901Z,26.01
2024-05-09T05:03:29.071Z,26.01
2024-05-09T05:04:28.884Z,26.03
2024-05-09T05:05:28.895Z,26.03
2024-05-09T05:06:28.824Z,26.04
2024-05-09T05:07:28.836Z,26.06
2024-05-09T05:08:28.835Z,26.04
2024-05-09T05:09:28.849Z,26.04
2024-05-09T05:10:35.035Z,26.04
2024-05-09T05:11:30.020Z,26.04
2024-05-09T05:12:28.994Z,26.04
2024-05-09T05:13:28.935Z,26.08
2024-05-09T05:14:29.106Z,26.06
2024-05-09T05:15:28.954Z,26.07
2024-05-09T05:16:28.943Z,26.07
2024-05-09T05:17:29.118Z,26.07
2024-05-09T05:18:29.242Z,26.08
2024-05-09T05:19:29.183Z,26.08
2024-05-09T05:20:33.548Z,26.08
2024-05-09T05:21:30.184Z,26.08
2024-05-09T05:22:29.094Z,26.10
2024-05-09T05:23:29.180Z,26.10
2024-05-09T05:24:29.085Z,26.12
2024-05-09T05:25:29.085Z,26.10
2024-05-09T05:26:29.073Z,26.12
2024-05-09T05:27:29.072Z,26.13
2024-05-09T05:28:29.144Z,26.13
2024-05-09T05:29:29.205Z,26.13
2024-05-09T05:30:34.318Z,26.14
2024-05-09T05:31:30.265Z,26.13
2024-05-09T05:32:29.437Z,26.14
2024-05-09T05:33:29.385Z,26.16
2024-05-09T05:34:29.294Z,26.16
2024-05-09T05:35:29.373Z,26.17
2024-05-09T05:36:29.238Z,26.16
2024-05-09T05:37:29.237Z,26.17
2024-05-09T05:38:29.306Z,26.17
2024-05-09T05:39:29.229Z,26.14
2024-05-09T05:40:36.076Z,26.20
2024-05-09T05:41:30.383Z,26.17
2024-05-09T05:42:29.321Z,26.17
2024-05-09T05:43:29.273Z,26.17
2024-05-09T05:44:29.334Z,26.19
2024-05-09T05:45:29.289Z,26.19
2024-05-09T05:46:29.284Z,26.19
2024-05-09T05:47:29.379Z,26.21
2024-05-09T05:48:29.385Z,26.20
2024-05-09T05:49:29.402Z,26.23
2024-05-09T05:50:35.485Z,26.21
2024-05-09T05:51:30.361Z,26.21
2024-05-09T05:52:29.333Z,26.24
2024-05-09T05:53:29.428Z,26.26
2024-05-09T05:54:29.345Z,26.26
2024-05-09T05:55:29.350Z,26.28
2024-05-09T05:56:29.371Z,26.28
2024-05-09T05:57:29.475Z,26.30
2024-05-09T05:58:29.347Z,26.33
2024-05-09T05:59:29.536Z,26.34
2024-05-09T06:00:35.519Z,26.34
2024-05-09T06:01:30.463Z,26.37
2024-05-09T06:02:29.447Z,26.36
2024-05-09T06:03:29.610Z,26.40
2024-05-09T06:04:29.414Z,26.41
2024-05-09T06:05:29.465Z,26.43
2024-05-09T06:06:29.393Z,26.46
2024-05-09T06:07:29.407Z,26.48
2024-05-09T06:08:30.544Z,26.52
2024-05-09T06:09:29.384Z,26.51
2024-05-09T06:10:35.223Z,26.51
2024-05-09T06:11:30.503Z,26.52
2024-05-09T06:12:29.498Z,26.52
2024-05-09T06:13:29.409Z,26.54
2024-05-09T06:14:29.534Z,26.57
2024-05-09T06:15:29.443Z,26.61
2024-05-09T06:16:29.396Z,26.61
2024-05-09T06:17:29.570Z,26.64
2024-05-09T06:18:29.591Z,26.70
2024-05-09T06:19:29.508Z,26.75
2024-05-09T06:20:35.336Z,26.79
2024-05-09T06:21:30.465Z,26.89
2024-05-09T06:22:29.403Z,27.01
2024-05-09T06:23:29.437Z,27.10
2024-05-09T06:24:29.415Z,27.16
2024-05-09T06:25:29.440Z,27.22
2024-05-09T06:26:29.531Z,27.28
2024-05-09T06:27:29.410Z,27.32
2024-05-09T06:28:29.448Z,27.39
2024-05-09T06:29:29.490Z,27.38
2024-05-09T06:30:37.080Z,27.40
2024-05-09T06:31:30.438Z,27.42
2024-05-09T06:32:29.549Z,27.40
2024-05-09T06:33:29.810Z,27.45
2024-05-09T06:34:29.486Z,27.43
2024-05-09T06:35:29.573Z,27.48
2024-05-09T06:36:29.425Z,27.50
2024-05-09T06:37:29.423Z,27.54
2024-05-09T06:38:29.473Z,27.56
2024-05-09T06:39:29.434Z,27.59
2024-05-09T06:40:36.374Z,27.62
2024-05-09T06:41:30.542Z,27.64
2024-05-09T06:42:29.444Z,27.69
2024-05-09T06:43:29.450Z,27.73
2024-05-09T06:44:29.607Z,27.73
2024-05-09T06:45:29.442Z,27.76
2024-05-09T06:46:29.479Z,27.80
2024-05-09T06:47:29.583Z,27.79
2024-05-09T06:48:29.647Z,27.83
2024-05-09T06:49:29.467Z,27.84
2024-05-09T06:50:35.759Z,27.84
2024-05-09T06:51:30.461Z,27.86
2024-05-09T06:52:29.459Z,27.90
2024-05-09T06:53:29.632Z,27.89
2024-05-09T06:54:29.459Z,27.91
2024-05-09T06:55:29.443Z,27.93
2024-05-09T06:56:29.458Z,27.97
2024-05-09T06:57:29.438Z,27.99
2024-05-09T06:58:29.458Z,28.00
2024-05-09T06:59:29.585Z,27.97
2024-05-09T07:00:35.852Z,27.99
2024-05-09T07:01:30.526Z,27.97
2024-05-09T07:02:29.534Z,27.96
2024-05-09T07:03:29.616Z,27.99
2024-05-09T07:04:29.580Z,27.99
2024-05-09T07:05:29.520Z,28.03
2024-05-09T07:06:29.505Z,27.97
2024-05-09T07:07:29.462Z,28.01
2024-05-09T07:08:29.523Z,28.03
2024-05-09T07:09:29.455Z,28.03
2024-05-09T07:10:34.770Z,28.03
2024-05-09T07:11:30.605Z,28.05
2024-05-09T07:12:29.597Z,28.05
2024-05-09T07:13:29.454Z,28.08
2024-05-09T07:14:29.688Z,28.11
2024-05-09T07:15:29.460Z,28.13
2024-05-09T07:16:29.467Z,28.15
2024-05-09T07:17:29.717Z,28.17
2024-05-09T07:18:29.785Z,28.18
2024-05-09T07:19:29.596Z,28.23
2024-05-09T07:20:34.493Z,28.24
2024-05-09T07:21:30.495Z,28.25
2024-05-09T07:22:29.514Z,28.33
2024-05-09T07:23:29.519Z,28.34
2024-05-09T07:24:29.483Z,28.33
2024-05-09T07:25:29.722Z,28.37
2024-05-09T07:26:29.532Z,28.41
2024-05-09T07:27:29.504Z,28.43
2024-05-09T07:28:29.508Z,28.47
2024-05-09T07:29:29.606Z,28.47
2024-05-09T07:30:33.385Z,28.48
2024-05-09T07:31:30.615Z,28.52
2024-05-09T07:32:29.719Z,28.52
2024-05-09T07:33:29.771Z,28.55
2024-05-09T07:34:29.661Z,28.55
2024-05-09T07:35:29.791Z,28.59
2024-05-09T07:36:29.578Z,28.62
2024-05-09T07:37:29.609Z,28.64
2024-05-09T07:38:29.754Z,28.65
2024-05-09T07:39:29.623Z,28.69
2024-05-09T07:40:35.639Z,28.71
2024-05-09T07:41:30.794Z,28.76
2024-05-09T07:42:29.647Z,28.78
2024-05-09T07:43:29.639Z,28.76
2024-05-09T07:44:29.786Z,28.78
2024-05-09T07:45:45.835Z,28.81
2024-05-09T07:47:37.002Z,28.82
2024-05-09T07:48:57.294Z,28.82
2024-05-09T07:50:01.224Z,28.85
2024-05-09T07:53:08.519Z,28.91
2024-05-09T07:53:32.638Z,28.91
2024-05-09T07:53:40.545Z,28.94
2024-05-09T07:54:30.842Z,28.94
2024-05-09T07:55:29.927Z,28.95
2024-05-09T07:56:30.075Z,28.95
2024-05-09T07:57:29.709Z,29.01
2024-05-09T07:58:29.679Z,28.99
2024-05-09T07:59:30.100Z,29.05
2024-05-09T08:00:31.814Z,29.09
2024-05-09T08:01:29.895Z,29.08
2024-05-09T08:02:29.965Z,29.09
2024-05-09T08:03:29.896Z,29.10
2024-05-09T08:04:30.059Z,29.12
2024-05-09T08:05:30.090Z,29.15
2024-05-09T08:06:29.916Z,29.15
2024-05-09T08:07:29.872Z,29.16
2024-05-09T08:08:29.932Z,29.17
2024-05-09T08:09:29.951Z,29.17
2024-05-09T08:10:29.992Z,29.19
2024-05-09T08:11:30.078Z,29.23
2024-05-09T08:12:30.074Z,29.25
2024-05-09T08:13:30.012Z,29.27
2024-05-09T08:14:30.076Z,29.26
2024-05-09T08:15:30.111Z,29.27
2024-05-09T08:16:30.230Z,29.30
2024-05-09T08:17:30.210Z,29.30
2024-05-09T08:18:30.538Z,29.30
2024-05-09T08:19:30.209Z,29.32
2024-05-09T08:20:33.727Z,29.33
2024-05-09T08:21:31.310Z,29.34
2024-05-09T08:22:30.275Z,29.34
2024-05-09T08:23:30.283Z,29.36
2024-05-09T08:24:30.409Z,29.39
2024-05-09T08:25:30.305Z,29.42
2024-05-09T08:26:30.303Z,29.42
2024-05-09T08:27:30.361Z,29.46
2024-05-09T08:28:30.355Z,29.47
2024-05-09T08:29:30.320Z,29.52
2024-05-09T08:30:36.365Z,29.53
2024-05-09T08:31:31.534Z,29.56
2024-05-09T08:32:30.461Z,29.57
2024-05-09T08:33:30.526Z,29.61
2024-05-09T08:34:30.442Z,29.64
2024-05-09T08:35:30.370Z,29.64
2024-05-09T08:36:30.459Z,29.69
2024-05-09T08:37:35.007Z,29.69
2024-05-09T08:38:31.405Z,29.73
2024-05-09T08:39:30.409Z,29.76
2024-05-09T08:40:35.012Z,29.76
2024-05-09T08:41:31.376Z,29.77
2024-05-09T08:42:30.436Z,29.81
2024-05-09T08:43:30.422Z,29.83
2024-05-09T08:44:30.427Z,29.85
2024-05-09T08:45:30.549Z,29.85
2024-05-09T08:46:30.462Z,29.88
2024-05-09T08:47:30.479Z,29.88
2024-05-09T08:48:30.641Z,29.92
2024-05-09T08:49:30.588Z,29.96
2024-05-09T08:50:37.864Z,29.94
2024-05-09T08:51:31.426Z,29.97
2024-05-09T08:52:30.448Z,29.98
2024-05-09T08:53:30.382Z,30.01
2024-05-09T08:54:30.521Z,30.03
2024-05-09T08:55:30.410Z,30.03
2024-05-09T08:56:30.412Z,30.05
2024-05-09T08:57:30.451Z,30.04
2024-05-09T08:58:30.418Z,30.05
2024-05-09T08:59:30.428Z,30.07
2024-05-09T09:00:36.567Z,30.05
2024-05-09T09:01:31.513Z,30.07
2024-05-09T09:02:30.629Z,30.11
2024-05-09T09:03:30.761Z,30.10
2024-05-09T09:04:30.649Z,30.12
2024-05-09T09:05:30.633Z,30.11
2024-05-09T09:06:30.495Z,30.14
2024-05-09T09:07:30.493Z,30.12
2024-05-09T09:08:30.443Z,30.14
2024-05-09T09:09:30.497Z,30.12
2024-05-09T09:10:32.503Z,30.15
2024-05-09T09:11:30.504Z,30.12
2024-05-09T09:12:30.479Z,30.17
2024-05-09T09:13:30.441Z,30.15
2024-05-09T09:14:30.435Z,30.20
2024-05-09T09:15:30.477Z,30.21
2024-05-09T09:16:30.516Z,30.21
2024-05-09T09:17:30.552Z,30.25
2024-05-09T09:18:31.044Z,30.25
2024-05-09T09:19:30.521Z,30.24
2024-05-09T09:20:36.215Z,30.24
2024-05-09T09:21:31.508Z,30.27
2024-05-09T09:22:30.455Z,30.25
2024-05-09T09:23:30.791Z,30.28
2024-05-09T09:24:30.475Z,30.30
2024-05-09T09:25:30.452Z,30.28
2024-05-09T09:26:30.458Z,30.28
2024-05-09T09:27:30.520Z,30.32
2024-05-09T09:28:30.463Z,30.32
2024-05-09T09:29:30.450Z,30.35
2024-05-09T09:30:36.583Z,30.36
2024-05-09T09:31:31.548Z,30.38
2024-05-09T09:32:30.603Z,30.41
2024-05-09T09:33:30.515Z,30.42
2024-05-09T09:34:30.645Z,30.42
2024-05-09T09:35:30.480Z,30.42
2024-05-09T09:36:30.484Z,30.48
2024-05-09T09:37:30.487Z,30.48
2024-05-09T09:38:30.492Z,30.49
2024-05-09T09:39:30.514Z,30.52
2024-05-09T09:40:32.959Z,30.51
2024-05-09T09:41:30.485Z,30.54
2024-05-09T09:42:30.507Z,30.52
2024-05-09T09:43:30.472Z,30.54
2024-05-09T09:44:30.527Z,30.56
2024-05-09T09:45:30.547Z,30.55
2024-05-09T09:46:30.505Z,30.58
2024-05-09T09:47:30.616Z,30.58
2024-05-09T09:48:30.726Z,30.58
2024-05-09T09:49:30.482Z,30.59
2024-05-09T09:50:34.474Z,30.59
2024-05-09T09:51:30.524Z,30.59
2024-05-09T09:52:30.504Z,30.61
2024-05-09T09:53:30.455Z,30.61
2024-05-09T09:54:30.538Z,30.62
2024-05-09T09:55:30.483Z,30.62
2024-05-09T09:56:30.504Z,30.62
2024-05-09T09:57:30.478Z,30.62
2024-05-09T09:58:30.573Z,30.62
2024-05-09T09:59:30.481Z,30.65
2024-05-09T10:00:33.209Z,30.65
2024-05-09T10:01:30.549Z,30.66
2024-05-09T10:02:30.689Z,30.65
2024-05-09T10:03:30.628Z,30.69
2024-05-09T10:04:30.558Z,30.65
2024-05-09T10:05:30.965Z,30.69
2024-05-09T10:06:30.598Z,30.65
2024-05-09T10:07:30.485Z,30.68
2024-05-09T10:08:30.489Z,30.68
2024-05-09T10:09:30.519Z,30.68
2024-05-09T10:10:32.880Z,30.66
2024-05-09T10:11:31.669Z,30.69
2024-05-09T10:12:30.573Z,30.71
2024-05-09T10:13:30.527Z,30.69
2024-05-09T10:14:30.565Z,30.69
2024-05-09T10:15:30.681Z,30.66
2024-05-09T10:16:30.709Z,30.69
2024-05-09T10:17:30.793Z,30.69
2024-05-09T10:18:32.730Z,30.66
2024-05-09T10:19:30.886Z,30.69
2024-05-09T10:20:32.800Z,30.71
2024-05-09T10:21:30.850Z,30.69
2024-05-09T10:22:30.800Z,30.72
2024-05-09T10:23:30.831Z,30.68
2024-05-09T10:24:30.909Z,30.69
2024-05-09T10:25:31.011Z,30.72
2024-05-09T10:26:30.970Z,30.72
2024-05-09T10:27:31.135Z,30.72
2024-05-09T10:28:31.113Z,30.69
2024-05-09T10:29:31.172Z,30.72
2024-05-09T10:30:35.903Z,30.72
2024-05-09T10:31:32.318Z,30.73
2024-05-09T10:32:31.306Z,30.72
2024-05-09T10:33:31.311Z,30.75
2024-05-09T10:34:31.288Z,30.76
2024-05-09T10:35:31.234Z,30.75
2024-05-09T10:36:31.331Z,30.76
2024-05-09T10:37:31.307Z,30.78
2024-05-09T10:38:31.264Z,30.79
2024-05-09T10:39:31.380Z,30.79
2024-05-09T10:40:32.084Z,30.79
2024-05-09T10:41:31.434Z,30.82
2024-05-09T10:42:31.536Z,30.81
2024-05-09T10:43:31.555Z,30.81
2024-05-09T10:44:31.662Z,30.85
2024-05-09T10:45:31.706Z,30.83
2024-05-09T10:46:31.839Z,30.82
2024-05-09T10:47:31.934Z,30.86
2024-05-09T10:48:31.952Z,30.82
2024-05-09T10:49:32.061Z,30.85
2024-05-09T10:50:34.356Z,30.85
2024-05-09T10:51:32.035Z,30.86
2024-05-09T10:52:32.023Z,30.86
2024-05-09T10:53:32.017Z,30.87
2024-05-09T10:54:32.064Z,30.87
2024-05-09T10:55:32.084Z,30.92
2024-05-09T10:56:32.059Z,30.90
2024-05-09T10:57:32.040Z,30.93
2024-05-09T10:58:32.035Z,30.92
2024-05-09T10:59:32.016Z,30.93
2024-05-09T11:00:35.881Z,30.92
2024-05-09T11:01:32.112Z,30.96
2024-05-09T11:02:32.278Z,30.96
2024-05-09T11:03:32.349Z,30.99
2024-05-09T11:04:32.109Z,30.97
2024-05-09T11:05:32.149Z,31.00
2024-05-09T11:06:32.051Z,31.00
2024-05-09T11:07:32.060Z,31.02
2024-05-09T11:08:32.083Z,31.06
2024-05-09T11:09:32.051Z,31.03
2024-05-09T11:10:34.312Z,31.05
2024-05-09T11:11:32.116Z,31.05
2024-05-09T11:12:32.082Z,31.07
2024-05-09T11:13:32.314Z,31.07
2024-05-09T11:14:32.045Z,31.07
2024-05-09T11:15:32.112Z,31.12
2024-05-09T11:16:32.066Z,31.12
2024-05-09T11:17:32.130Z,31.07
2024-05-09T11:18:35.511Z,31.13
2024-05-09T11:19:33.216Z,31.10
2024-05-09T11:20:35.014Z,31.13
2024-05-09T11:21:32.138Z,31.13
2024-05-09T11:22:32.064Z,31.16
2024-05-09T11:23:32.070Z,31.16
2024-05-09T11:24:32.072Z,31.13
2024-05-09T11:25:32.047Z,31.13
2024-05-09T11:26:32.049Z,31.15
2024-05-09T11:27:32.109Z,31.13
2024-05-09T11:28:32.113Z,31.15
2024-05-09T11:29:32.075Z,31.15
2024-05-09T11:30:32.746Z,31.15
2024-05-09T11:31:32.159Z,31.15
2024-05-09T11:32:32.164Z,31.19
2024-05-09T11:33:32.191Z,31.17
2024-05-09T11:34:32.137Z,31.16
2024-05-09T11:35:32.075Z,31.17
2024-05-09T11:36:32.190Z,31.19
2024-05-09T11:37:34.659Z,31.17
2024-05-09T11:38:32.062Z,31.19
2024-05-09T11:39:32.131Z,31.16
2024-05-09T11:40:34.371Z,31.17
2024-05-09T11:41:32.082Z,31.17
2024-05-09T11:42:32.173Z,31.19
2024-05-09T11:43:32.258Z,31.20
2024-05-09T11:44:32.067Z,31.19
2024-05-09T11:45:32.119Z,31.17
2024-05-09T11:46:32.054Z,31.19
2024-05-09T11:47:32.144Z,31.19
2024-05-09T11:48:32.495Z,31.22
2024-05-09T11:49:32.206Z,31.20
2024-05-09T11:50:35.490Z,31.20
2024-05-09T11:51:32.169Z,31.22
2024-05-09T11:52:32.079Z,31.24
2024-05-09T11:53:32.067Z,31.24
2024-05-09T11:54:32.157Z,31.22
2024-05-09T11:55:32.128Z,31.26
2024-05-09T11:56:32.099Z,31.26
2024-05-09T11:57:32.167Z,31.27
2024-05-09T11:58:32.091Z,31.30
2024-05-09T11:59:32.063Z,31.30
2024-05-09T12:00:36.745Z,31.33
2024-05-09T12:01:33.229Z,31.32
2024-05-09T12:02:32.175Z,31.34
2024-05-09T12:03:32.328Z,31.34
2024-05-09T12:04:32.331Z,31.34
2024-05-09T12:05:32.297Z,31.36
2024-05-09T12:06:32.162Z,31.36
2024-05-09T12:07:32.212Z,31.37
2024-05-09T12:08:32.159Z,31.37
2024-05-09T12:09:32.166Z,31.41
2024-05-09T12:10:34.771Z,31.43
2024-05-09T12:11:32.258Z,31.37
2024-05-09T12:12:33.469Z,31.43
2024-05-09T12:13:32.367Z,31.41
2024-05-09T12:14:32.370Z,31.41
2024-05-09T12:15:32.445Z,31.44
2024-05-09T12:16:32.631Z,31.43
2024-05-09T12:17:32.503Z,31.43
2024-05-09T12:18:32.500Z,31.44
2024-05-09T12:19:32.539Z,31.46
2024-05-09T12:20:36.914Z,31.44
2024-05-09T12:21:33.449Z,31.47
2024-05-09T12:22:32.466Z,31.48
2024-05-09T12:23:32.445Z,31.47
2024-05-09T12:24:32.497Z,31.48
2024-05-09T12:25:32.412Z,31.48
2024-05-09T12:26:32.429Z,31.47
2024-05-09T12:27:32.459Z,31.51
2024-05-09T12:28:32.502Z,31.48
2024-05-09T12:29:33.345Z,31.47
2024-05-09T12:30:37.403Z,31.48
2024-05-09T12:31:33.547Z,31.47
2024-05-09T12:32:32.491Z,31.46
2024-05-09T12:33:32.578Z,31.47
2024-05-09T12:34:32.460Z,31.44
2024-05-09T12:35:32.469Z,31.44
2024-05-09T12:36:32.473Z,31.43
2024-05-09T12:37:32.428Z,31.44
2024-05-09T12:38:32.466Z,31.43
2024-05-09T12:39:32.465Z,31.43
2024-05-09T12:40:36.574Z,31.40
2024-05-09T12:41:33.437Z,31.38
2024-05-09T12:42:33.759Z,31.37
2024-05-09T12:43:32.515Z,31.38
2024-05-09T12:44:32.435Z,31.38
2024-05-09T12:45:32.682Z,31.37
2024-05-09T12:46:32.528Z,31.34
2024-05-09T12:47:32.538Z,31.34
2024-05-09T12:48:32.541Z,31.34
2024-05-09T12:49:32.623Z,31.34
2024-05-09T12:50:34.287Z,31.32
2024-05-09T12:51:32.470Z,31.33
2024-05-09T12:52:32.473Z,31.33
2024-05-09T12:53:32.468Z,31.32
2024-05-09T12:54:32.472Z,31.33